createdAt,value
2022-12-17T00:00:46.597Z,1.50
2022-12-17T00:03:32.277Z,1.80
2022-12-17T00:06:18.075Z,1.42
2022-12-17T00:09:03.234Z,1.58
2022-12-17T00:11:48.568Z,1.58
2022-12-17T00:14:33.837Z,1.42
2022-12-17T00:17:20.592Z,1.40
2022-12-17T00:20:05.848Z,1.60
2022-12-17T00:22:51.174Z,1.30
2022-12-17T00:25:36.604Z,1.50
2022-12-17T00:28:21.694Z,1.45
2022-12-17T00:31:10.441Z,2.03
2022-12-17T00:33:57.640Z,1.58
2022-12-17T00:36:43.275Z,1.70
2022-12-17T00:39:28.398Z,1.40
2022-12-17T00:42:15.443Z,1.50
2022-12-17T00:45:01.719Z,1.45
2022-12-17T00:47:47.576Z,1.35
2022-12-17T00:50:34.815Z,1.58
2022-12-17T00:53:20.073Z,1.58
2022-12-17T00:56:05.842Z,2.08
2022-12-17T00:58:51.072Z,2.00
2022-12-17T01:01:37.656Z,1.45
2022-12-17T01:04:23.390Z,1.90
2022-12-17T01:07:10.281Z,1.55
2022-12-17T01:09:55.467Z,1.38
2022-12-17T01:12:41.154Z,1.60
2022-12-17T01:15:26.788Z,1.30
2022-12-17T01:18:12.263Z,1.50
2022-12-17T01:20:57.407Z,1.38
2022-12-17T01:23:52.800Z,1.60
2022-12-17T01:26:38.391Z,1.40
2022-12-17T01:29:23.665Z,1.48
2022-12-17T01:32:08.855Z,1.60
2022-12-17T01:34:55.689Z,1.50
2022-12-17T01:37:41.179Z,1.30
2022-12-17T01:40:29.419Z,1.35
2022-12-17T01:43:18.012Z,1.20
2022-12-17T01:46:07.652Z,1.30
2022-12-17T01:49:05.543Z,1.40
2022-12-17T01:51:52.651Z,1.33
2022-12-17T01:54:38.551Z,1.23
2022-12-17T01:57:26.332Z,1.27
2022-12-17T02:00:17.503Z,1.20
2022-12-17T02:03:02.997Z,1.38
2022-12-17T02:05:56.923Z,1.17
2022-12-17T02:08:50.262Z,1.20
2022-12-17T02:11:42.937Z,1.50
2022-12-17T02:14:40.639Z,1.30
2022-12-17T02:17:33.732Z,1.50
2022-12-17T02:20:35.027Z,1.20
2022-12-17T02:23:27.705Z,1.40
2022-12-17T02:26:26.871Z,1.48
2022-12-17T02:29:16.340Z,1.58
2022-12-17T02:32:16.089Z,1.42
2022-12-17T02:35:02.856Z,1.50
2022-12-17T02:37:48.972Z,1.90
2022-12-17T02:40:37.176Z,1.70
2022-12-17T02:43:23.394Z,1.80
2022-12-17T02:46:11.679Z,1.88
2022-12-17T02:48:57.428Z,1.58
2022-12-17T02:51:45.572Z,1.90
2022-12-17T02:54:30.856Z,1.90
2022-12-17T02:57:16.551Z,1.88
2022-12-17T03:00:03.195Z,2.22
2022-12-17T03:02:51.371Z,2.10
2022-12-17T03:05:44.865Z,2.10
2022-12-17T03:08:31.447Z,1.75
2022-12-17T03:11:17.230Z,1.98
2022-12-17T03:14:02.937Z,2.05
2022-12-17T03:16:48.851Z,2.00
2022-12-17T03:19:36.184Z,2.00
2022-12-17T03:22:21.538Z,2.15
2022-12-17T03:25:06.772Z,1.88
2022-12-17T03:27:52.093Z,2.25
2022-12-17T03:30:38.993Z,2.28
2022-12-17T03:33:32.331Z,1.83
2022-12-17T03:36:19.272Z,2.15
2022-12-17T03:39:04.569Z,2.33
2022-12-17T03:41:49.755Z,2.38
2022-12-17T03:44:35.002Z,2.50
2022-12-17T03:47:20.188Z,2.03
2022-12-17T03:50:05.526Z,2.35
2022-12-17T03:52:52.639Z,1.90
2022-12-17T03:55:37.926Z,2.35
2022-12-17T03:58:23.177Z,2.10
2022-12-17T04:01:08.358Z,2.30
2022-12-17T04:03:53.707Z,2.47
2022-12-17T04:06:38.958Z,2.38
2022-12-17T04:09:25.933Z,2.72
2022-12-17T04:12:11.159Z,2.42
2022-12-17T04:14:56.883Z,2.45
2022-12-17T04:17:42.180Z,3.00
2022-12-17T04:20:28.585Z,2.50
2022-12-17T04:23:13.717Z,2.90
2022-12-17T04:26:00.551Z,2.30
2022-12-17T04:28:45.783Z,2.45
2022-12-17T04:31:31.553Z,2.80
2022-12-17T04:34:16.883Z,2.55
2022-12-17T04:37:02.262Z,2.75
2022-12-17T04:39:47.554Z,2.47
2022-12-17T04:42:34.845Z,2.67
2022-12-17T04:45:20.299Z,2.65
2022-12-17T04:48:10.996Z,2.10
2022-12-17T04:50:56.701Z,2.58
2022-12-17T04:53:41.988Z,2.30
2022-12-17T04:56:27.279Z,2.22
2022-12-17T04:59:13.419Z,2.38
2022-12-17T05:01:58.939Z,2.15
2022-12-17T05:04:44.376Z,2.20
2022-12-17T05:07:29.526Z,2.10
2022-12-17T05:10:20.176Z,2.00
2022-12-17T05:13:05.712Z,1.67
2022-12-17T05:15:53.405Z,1.60
2022-12-17T05:18:38.910Z,1.45
2022-12-17T05:21:24.470Z,1.77
2022-12-17T05:24:10.399Z,1.50
2022-12-17T05:26:55.686Z,1.60
2022-12-17T05:29:42.976Z,1.60
2022-12-17T05:32:29.515Z,1.30
2022-12-17T05:35:14.753Z,1.48
2022-12-17T05:38:00.023Z,1.35
2022-12-17T05:40:45.307Z,1.63
2022-12-17T05:43:31.709Z,1.10
2022-12-17T05:46:16.934Z,1.02
2022-12-17T05:49:03.820Z,1.25
2022-12-17T05:51:49.530Z,1.30
2022-12-17T05:54:34.866Z,1.40
2022-12-17T05:57:20.091Z,1.23
2022-12-17T06:00:05.401Z,1.10
2022-12-17T06:02:57.383Z,1.02
2022-12-17T06:05:44.365Z,1.10
2022-12-17T06:08:29.523Z,1.33
2022-12-17T06:11:17.714Z,0.90
2022-12-17T06:14:03.577Z,0.95
2022-12-17T06:17:03.380Z,0.90
2022-12-17T06:19:48.883Z,0.90
2022-12-17T06:22:35.494Z,1.10
2022-12-17T06:25:20.989Z,0.90
2022-12-17T06:28:06.244Z,1.10
2022-12-17T06:30:51.979Z,0.90
2022-12-17T06:33:37.852Z,0.77
2022-12-17T06:36:24.324Z,0.82
2022-12-17T06:39:11.367Z,1.00
2022-12-17T06:42:04.659Z,1.08
2022-12-17T06:44:50.403Z,1.10
2022-12-17T06:47:36.643Z,0.80
2022-12-17T06:50:22.986Z,1.17
2022-12-17T06:53:17.378Z,0.90
2022-12-17T06:56:06.407Z,1.02
2022-12-17T06:58:51.834Z,0.80
2022-12-17T07:01:37.765Z,0.77
2022-12-17T07:04:23.188Z,0.95
2022-12-17T07:07:09.030Z,0.93
2022-12-17T07:09:54.607Z,0.50
2022-12-17T07:12:44.182Z,0.63
2022-12-17T07:15:30.079Z,0.80
2022-12-17T07:18:16.284Z,0.70
2022-12-17T07:21:01.672Z,1.02
2022-12-17T07:23:46.965Z,0.68
2022-12-17T07:26:33.131Z,0.60
2022-12-17T07:29:20.632Z,0.63
2022-12-17T07:32:08.316Z,0.60
2022-12-17T07:34:53.793Z,0.60
2022-12-17T07:37:40.159Z,0.70
2022-12-17T07:40:32.317Z,0.55
2022-12-17T07:43:17.877Z,0.55
2022-12-17T07:46:05.001Z,0.70
2022-12-17T07:48:50.679Z,0.60
2022-12-17T07:51:35.963Z,1.00
2022-12-17T07:54:21.111Z,0.60
2022-12-17T07:57:06.419Z,0.70
2022-12-17T07:59:51.581Z,0.70
2022-12-17T08:02:38.831Z,0.80
2022-12-17T08:05:24.999Z,0.43
2022-12-17T08:08:10.161Z,0.70
2022-12-17T08:10:55.507Z,0.70
2022-12-17T08:13:40.724Z,0.63
2022-12-17T08:16:26.664Z,0.47
2022-12-17T08:19:14.534Z,0.40
2022-12-17T08:21:59.799Z,0.63
2022-12-17T08:24:45.169Z,0.73
2022-12-17T08:27:30.360Z,0.80
2022-12-17T08:30:15.733Z,0.50
2022-12-17T08:33:00.980Z,0.47
2022-12-17T08:35:47.751Z,0.70
2022-12-17T08:38:48.023Z,0.70
2022-12-17T08:41:33.322Z,0.68
2022-12-17T08:44:18.567Z,0.75
2022-12-17T08:47:04.004Z,0.57
2022-12-17T08:49:49.300Z,0.50
2022-12-17T08:52:35.923Z,0.50
2022-12-17T08:55:21.121Z,0.70
2022-12-17T08:58:12.002Z,1.35
2022-12-17T09:00:57.795Z,1.35
2022-12-17T09:03:43.556Z,1.60
2022-12-17T09:06:30.089Z,1.45
2022-12-17T09:09:18.039Z,1.27
2022-12-17T09:12:03.335Z,1.38
2022-12-17T09:14:56.866Z,1.45
2022-12-17T09:17:42.817Z,1.33
2022-12-17T09:20:29.586Z,1.13
2022-12-17T09:23:15.174Z,1.15
2022-12-17T09:26:01.912Z,0.82
2022-12-17T09:28:47.024Z,0.90
2022-12-17T09:31:37.003Z,0.88
2022-12-17T09:34:23.129Z,0.75
2022-12-17T09:37:08.695Z,0.77
2022-12-17T09:39:53.920Z,0.80
2022-12-17T09:42:52.582Z,0.50
2022-12-17T09:45:46.360Z,0.93
2022-12-17T09:48:38.826Z,0.73
2022-12-17T09:51:38.537Z,1.02
2022-12-17T09:54:30.372Z,0.60
2022-12-17T09:57:16.811Z,0.57
2022-12-17T10:00:03.977Z,0.95
2022-12-17T10:02:57.884Z,0.60
2022-12-17T10:05:47.044Z,0.60
2022-12-17T10:08:35.397Z,0.50
2022-12-17T10:11:34.846Z,0.73
2022-12-17T10:14:22.199Z,0.60
2022-12-17T10:17:12.092Z,0.70
2022-12-17T10:19:59.671Z,0.80
2022-12-17T10:22:45.519Z,0.55
2022-12-17T10:25:34.506Z,0.60
2022-12-17T10:28:21.639Z,0.55
2022-12-17T10:31:06.893Z,0.52
2022-12-17T10:33:58.431Z,0.60
2022-12-17T10:36:45.165Z,0.40
2022-12-17T10:39:35.567Z,0.50
2022-12-17T10:42:21.186Z,0.40
2022-12-17T10:45:20.898Z,0.77
2022-12-17T10:48:06.274Z,0.50
2022-12-17T10:50:59.942Z,0.50
2022-12-17T10:53:45.351Z,0.63
2022-12-17T10:56:40.625Z,0.50
2022-12-17T10:59:31.305Z,0.88
2022-12-17T11:02:17.807Z,0.82
2022-12-17T11:05:10.608Z,0.63
2022-12-17T11:08:00.470Z,0.50
2022-12-17T11:10:49.750Z,0.60
2022-12-17T11:13:43.712Z,0.73
2022-12-17T11:16:38.600Z,0.57
2022-12-17T11:19:46.651Z,0.50
2022-12-17T11:22:42.480Z,0.70
2022-12-17T11:25:45.449Z,0.40
2022-12-17T11:28:43.079Z,0.50
2022-12-17T11:31:53.721Z,0.50
2022-12-17T11:34:50.994Z,0.55
2022-12-17T11:37:39.831Z,0.57
2022-12-17T11:40:40.232Z,0.50
2022-12-17T11:43:36.660Z,1.00
2022-12-17T11:46:33.018Z,0.50
2022-12-17T11:49:27.475Z,0.40
2022-12-17T11:52:20.422Z,0.50
2022-12-17T11:55:14.284Z,0.60
2022-12-17T11:58:08.512Z,0.50
2022-12-17T12:01:02.564Z,0.60
2022-12-17T12:04:01.040Z,0.70
2022-12-17T12:06:56.878Z,0.65
2022-12-17T12:09:51.623Z,0.60
2022-12-17T12:12:52.423Z,0.65
2022-12-17T12:15:46.367Z,0.60
2022-12-17T12:18:39.224Z,0.40
2022-12-17T12:21:44.029Z,0.68
2022-12-17T12:24:43.918Z,0.70
2022-12-17T12:27:42.594Z,0.50
2022-12-17T12:30:34.265Z,0.50
2022-12-17T12:33:29.735Z,0.70
2022-12-17T12:36:19.635Z,0.70
2022-12-17T12:39:09.063Z,0.60
2022-12-17T12:42:04.147Z,0.63
2022-12-17T12:45:00.103Z,0.60
2022-12-17T12:47:53.891Z,0.60
2022-12-17T12:50:47.712Z,0.60
2022-12-17T12:53:33.396Z,0.50
2022-12-17T12:56:19.227Z,0.68
2022-12-17T12:59:04.264Z,0.73
2022-12-17T13:01:55.321Z,0.88
2022-12-17T13:04:51.674Z,0.80
2022-12-17T13:07:27.369Z,0.60
2022-12-17T13:09:57.027Z,0.60
2022-12-17T13:12:31.124Z,0.75
2022-12-17T13:15:28.935Z,0.68
2022-12-17T13:18:16.282Z,0.70
2022-12-17T13:20:44.381Z,0.57
2022-12-17T13:23:27.894Z,0.60
2022-12-17T13:26:15.788Z,0.50
2022-12-17T13:28:45.691Z,0.50
2022-12-17T13:31:21.077Z,0.50
2022-12-17T13:33:59.385Z,0.55
2022-12-17T13:36:35.379Z,0.55
2022-12-17T13:39:22.724Z,0.50
2022-12-17T13:41:56.899Z,0.60
2022-12-17T13:44:29.564Z,0.55
2022-12-17T13:46:57.641Z,0.60
2022-12-17T13:49:27.740Z,0.60
2022-12-17T13:52:17.915Z,0.50
2022-12-17T13:54:47.784Z,0.65
2022-12-17T13:57:20.717Z,0.55
2022-12-17T13:59:53.601Z,0.57
2022-12-17T14:02:29.954Z,0.60
2022-12-17T14:05:04.047Z,0.63
2022-12-17T14:07:39.338Z,0.70
2022-12-17T14:10:16.606Z,0.60
2022-12-17T14:12:44.944Z,0.68
2022-12-17T14:15:24.476Z,0.70
2022-12-17T14:17:54.027Z,0.50
2022-12-17T14:20:25.003Z,0.60
2022-12-17T14:22:56.002Z,0.60
2022-12-17T14:25:28.334Z,0.50
2022-12-17T14:27:58.711Z,0.50
2022-12-17T14:30:35.168Z,0.45
2022-12-17T14:33:03.751Z,0.52
2022-12-17T14:35:35.109Z,0.60
2022-12-17T14:38:04.073Z,0.40
2022-12-17T14:40:33.525Z,0.40
2022-12-17T14:43:02.592Z,0.45
2022-12-17T14:45:30.712Z,0.40
2022-12-17T14:48:00.387Z,0.60
2022-12-17T14:50:33.579Z,0.90
2022-12-17T14:53:03.372Z,0.50
2022-12-17T14:55:38.369Z,0.60
2022-12-17T14:58:17.613Z,0.50
2022-12-17T15:00:48.305Z,0.52
2022-12-17T15:03:21.249Z,0.40
2022-12-17T15:05:54.078Z,0.55
2022-12-17T15:08:22.875Z,0.50
2022-12-17T15:10:52.192Z,0.75
2022-12-17T15:13:21.041Z,0.50
2022-12-17T15:15:48.915Z,0.60
2022-12-17T15:18:16.963Z,0.73
2022-12-17T15:20:45.296Z,0.80
2022-12-17T15:23:17.175Z,0.70
2022-12-17T15:25:47.241Z,0.50
2022-12-17T15:28:17.976Z,0.60
2022-12-17T15:30:46.441Z,0.55
2022-12-17T15:33:14.661Z,0.70
2022-12-17T15:35:43.745Z,0.73
2022-12-17T15:38:13.330Z,0.65
2022-12-17T15:40:41.804Z,0.60
2022-12-17T15:43:13.584Z,0.77
2022-12-17T15:45:44.538Z,0.70
2022-12-17T15:48:14.994Z,0.80
2022-12-17T15:50:43.298Z,0.70
2022-12-17T15:53:11.484Z,0.60
2022-12-17T15:55:40.197Z,0.70
2022-12-17T15:58:10.604Z,0.68
2022-12-17T16:00:38.829Z,0.68
2022-12-17T16:03:08.392Z,0.82
2022-12-17T16:05:36.475Z,0.70
2022-12-17T16:08:04.371Z,0.77
2022-12-17T16:10:32.475Z,0.60
2022-12-17T16:13:00.443Z,0.70
2022-12-17T16:15:28.592Z,0.90
2022-12-17T16:17:56.784Z,0.70
2022-12-17T16:20:27.167Z,1.10
2022-12-17T16:22:55.213Z,0.80
2022-12-17T16:25:23.246Z,1.05
2022-12-17T16:27:51.179Z,0.90
2022-12-17T16:30:19.279Z,0.80
2022-12-17T16:32:47.278Z,1.50
2022-12-17T16:35:15.265Z,1.10
2022-12-17T16:37:44.792Z,1.00
2022-12-17T16:40:13.429Z,0.90
2022-12-17T16:42:41.584Z,0.88
2022-12-17T16:45:10.639Z,0.82
2022-12-17T16:47:38.771Z,0.63
2022-12-17T16:50:07.379Z,0.73
2022-12-17T16:52:35.367Z,0.77
2022-12-17T16:55:04.948Z,0.80
2022-12-17T16:57:32.860Z,1.00
2022-12-17T17:00:00.872Z,0.65
2022-12-17T17:02:29.142Z,0.80
2022-12-17T17:04:57.277Z,0.90
2022-12-17T17:07:25.274Z,0.70
2022-12-17T17:09:53.261Z,0.90
2022-12-17T17:12:23.350Z,0.80
2022-12-17T17:14:51.322Z,0.90
2022-12-17T17:17:19.291Z,0.80
2022-12-17T17:20:08.103Z,0.80
2022-12-17T17:22:36.155Z,0.80
2022-12-17T17:25:05.066Z,0.60
2022-12-17T17:27:34.430Z,0.90
2022-12-17T17:30:03.825Z,0.73
2022-12-17T17:32:32.144Z,1.00
2022-12-17T17:35:00.292Z,1.15
2022-12-17T17:37:28.446Z,0.80
2022-12-17T17:39:56.371Z,0.82
2022-12-17T17:42:24.348Z,0.60
2022-12-17T17:44:53.827Z,0.85
2022-12-17T17:47:21.864Z,0.80
2022-12-17T17:49:49.868Z,0.80
2022-12-17T17:52:18.309Z,1.05
2022-12-17T17:54:46.355Z,0.75
2022-12-17T17:57:14.316Z,0.90
2022-12-17T17:59:42.275Z,0.90
2022-12-17T18:02:12.802Z,0.80
2022-12-17T18:04:41.069Z,0.93
2022-12-17T18:07:26.995Z,1.00
2022-12-17T18:09:55.881Z,0.80
2022-12-17T18:12:41.999Z,0.80
2022-12-17T18:15:15.755Z,0.80
2022-12-17T18:17:46.764Z,0.65
2022-12-17T18:20:15.352Z,0.80
2022-12-17T18:22:45.791Z,0.93
2022-12-17T18:25:14.023Z,0.80
2022-12-17T18:27:42.629Z,0.80
2022-12-17T18:30:11.639Z,1.08
2022-12-17T18:32:39.635Z,1.33
2022-12-17T18:35:10.080Z,1.02
2022-12-17T18:37:38.458Z,1.17
2022-12-17T18:40:07.434Z,1.08
2022-12-17T18:42:55.394Z,1.02
2022-12-17T18:45:23.453Z,1.05
2022-12-17T18:47:51.647Z,0.95
2022-12-17T18:50:21.079Z,0.77
2022-12-17T18:52:49.150Z,0.90
2022-12-17T18:55:17.471Z,1.00
2022-12-17T18:57:45.318Z,0.90
2022-12-17T19:00:14.780Z,1.20
2022-12-17T19:02:42.852Z,0.80
2022-12-17T19:05:11.124Z,1.40
2022-12-17T19:07:40.380Z,0.80
2022-12-17T19:10:09.201Z,1.00
2022-12-17T19:12:37.228Z,1.20
2022-12-17T19:15:05.867Z,1.30
2022-12-17T19:17:34.571Z,1.00
2022-12-17T19:20:02.488Z,1.50
2022-12-17T19:22:30.535Z,1.20
2022-12-17T19:24:59.785Z,1.20
2022-12-17T19:27:28.855Z,1.05
2022-12-17T19:29:57.232Z,1.20
2022-12-17T19:32:25.908Z,1.10
2022-12-17T19:34:53.935Z,1.33
2022-12-17T19:37:21.918Z,1.40
2022-12-17T19:39:49.955Z,1.17
2022-12-17T19:42:33.465Z,1.30
2022-12-17T19:45:05.225Z,1.20
2022-12-17T19:47:33.192Z,1.25
2022-12-17T19:50:02.223Z,1.45
2022-12-17T19:52:30.299Z,1.30
2022-12-17T19:54:58.303Z,1.30
2022-12-17T19:57:27.673Z,1.38
2022-12-17T19:59:55.650Z,1.27
2022-12-17T20:02:27.016Z,1.73
2022-12-17T20:04:57.800Z,1.48
2022-12-17T20:07:27.798Z,1.40
2022-12-17T20:09:55.784Z,1.33
2022-12-17T20:12:23.844Z,1.77
2022-12-17T20:14:53.175Z,1.20
2022-12-17T20:17:21.325Z,1.60
2022-12-17T20:19:53.323Z,1.75
2022-12-17T20:22:22.856Z,1.42
2022-12-17T20:24:50.824Z,1.52
2022-12-17T20:27:18.907Z,1.65
2022-12-17T20:29:46.823Z,1.90
2022-12-17T20:32:21.261Z,1.23
2022-12-17T20:34:49.407Z,1.55
2022-12-17T20:37:17.391Z,1.70
2022-12-17T20:39:45.400Z,1.60
2022-12-17T20:42:13.491Z,1.73
2022-12-17T20:44:41.496Z,1.80
2022-12-17T20:47:09.415Z,1.90
2022-12-17T20:49:38.775Z,1.50
2022-12-17T20:52:06.862Z,1.45
2022-12-17T20:54:35.502Z,1.73
2022-12-17T20:57:03.491Z,2.13
2022-12-17T20:59:31.461Z,1.55
2022-12-17T21:01:59.445Z,1.83
2022-12-17T21:04:27.654Z,1.90
2022-12-17T21:06:57.055Z,1.73
2022-12-17T21:09:25.557Z,1.63
2022-12-17T21:11:53.559Z,1.83
2022-12-17T21:14:21.423Z,2.10
2022-12-17T21:16:49.715Z,2.03
2022-12-17T21:19:20.194Z,1.70
2022-12-17T21:21:48.628Z,1.75
2022-12-17T21:24:18.143Z,2.05
2022-12-17T21:26:49.972Z,1.70
2022-12-17T21:29:18.457Z,1.60
2022-12-17T21:31:48.561Z,1.65
2022-12-17T21:34:19.128Z,1.63
2022-12-17T21:36:47.193Z,1.90
2022-12-17T21:39:18.052Z,2.08
2022-12-17T21:42:09.090Z,1.67
2022-12-17T21:44:38.062Z,1.90
2022-12-17T21:47:06.732Z,2.22
2022-12-17T21:49:34.887Z,1.55
2022-12-17T21:52:03.157Z,2.20
2022-12-17T21:54:32.529Z,1.88
2022-12-17T21:57:00.484Z,3.13
2022-12-17T21:59:28.470Z,2.28
2022-12-17T22:01:57.506Z,2.00
2022-12-17T22:04:26.094Z,1.90
2022-12-17T22:06:58.153Z,2.22
2022-12-17T22:10:01.156Z,2.17
2022-12-17T22:12:43.566Z,2.45
2022-12-17T22:15:12.112Z,1.92
2022-12-17T22:17:42.392Z,2.20
2022-12-17T22:20:11.416Z,2.20
2022-12-17T22:22:39.464Z,2.00
2022-12-17T22:25:11.281Z,2.22
2022-12-17T22:27:40.790Z,2.05
2022-12-17T22:30:31.082Z,2.28
2022-12-17T22:33:05.613Z,2.65
2022-12-17T22:38:03.304Z,2.33
2022-12-17T22:42:56.352Z,2.22
2022-12-17T22:44:35.841Z,2.35
2022-12-17T22:44:36.168Z,2.25
2022-12-17T22:47:10.105Z,1.73
2022-12-17T22:49:40.790Z,2.10
2022-12-17T22:52:11.647Z,1.92
2022-12-17T22:54:39.785Z,1.90
2022-12-17T22:57:34.470Z,2.35
2022-12-17T22:59:57.566Z,2.03
2022-12-17T23:02:25.533Z,1.98
2022-12-17T23:04:53.459Z,1.90
2022-12-17T23:07:23.642Z,2.10
2022-12-17T23:09:54.917Z,1.95
2022-12-17T23:12:42.319Z,2.30
2022-12-17T23:15:10.751Z,2.00
2022-12-17T23:17:38.708Z,1.95
2022-12-17T23:20:07.755Z,2.30
2022-12-17T23:22:35.720Z,1.70
2022-12-17T23:25:04.332Z,1.83
2022-12-17T23:27:33.988Z,2.15
2022-12-17T23:30:02.019Z,2.03
2022-12-17T23:32:30.274Z,2.08
2022-12-17T23:34:58.460Z,2.38
2022-12-17T23:37:26.483Z,2.80
2022-12-17T23:39:54.412Z,2.10
2022-12-17T23:42:22.539Z,2.10
2022-12-17T23:44:51.888Z,2.45
2022-12-17T23:47:19.787Z,1.95
2022-12-17T23:49:47.945Z,2.30
2022-12-17T23:52:16.007Z,2.08
2022-12-17T23:54:44.016Z,2.25
2022-12-17T23:57:12.039Z,2.55
2022-12-17T23:59:40.170Z,2.00
